createdAt,value
2022-11-30T00:01:16.227Z,100996.38
2022-11-30T00:03:20.856Z,100996.58
2022-11-30T00:05:25.470Z,100998.24
2022-11-30T00:07:29.940Z,100998.07
2022-11-30T00:09:34.453Z,101000.83
2022-11-30T00:11:38.815Z,100999.88
2022-11-30T00:13:43.231Z,100999.57
2022-11-30T00:15:47.588Z,101000.45
2022-11-30T00:17:51.972Z,101003.83
2022-11-30T00:19:56.357Z,101004.33
2022-11-30T00:22:00.784Z,101007.77
2022-11-30T00:24:05.143Z,101008.19
2022-11-30T00:26:09.503Z,101008.83
2022-11-30T00:28:13.911Z,101008.14
2022-11-30T00:30:18.312Z,101010.05
2022-11-30T00:32:22.706Z,101012.61
2022-11-30T00:34:27.044Z,101010.45
2022-11-30T00:36:31.354Z,101009.15
2022-11-30T00:38:35.716Z,101011.94
2022-11-30T00:40:40.067Z,101008.02
2022-11-30T00:42:44.443Z,101007.48
2022-11-30T00:44:49.326Z,101013.45
2022-11-30T00:46:53.661Z,101011.68
2022-11-30T00:48:58.040Z,101009.7
2022-11-30T00:51:02.398Z,101011.03
2022-11-30T00:53:06.761Z,101012.36
2022-11-30T00:55:11.151Z,101012.77
2022-11-30T00:57:15.489Z,101013.93
2022-11-30T00:59:19.861Z,101013.35
2022-11-30T01:01:24.323Z,101013.8
2022-11-30T01:03:28.756Z,101015.47
2022-11-30T01:05:33.121Z,101013.77
2022-11-30T01:07:37.607Z,101014.52
2022-11-30T01:09:42.094Z,101012.67
2022-11-30T01:11:46.433Z,101011.23
2022-11-30T01:13:50.837Z,101009.43
2022-11-30T01:15:55.338Z,101012.19
2022-11-30T01:17:59.803Z,101015.73
2022-11-30T01:20:04.192Z,101013.73
2022-11-30T01:22:08.541Z,101017.64
2022-11-30T01:24:12.934Z,101017.27
2022-11-30T01:26:17.344Z,101021.39
2022-11-30T01:28:21.752Z,101026.13
2022-11-30T01:30:26.113Z,101024.3
2022-11-30T01:32:30.464Z,101024.66
2022-11-30T01:34:34.851Z,101026.75
2022-11-30T01:36:39.200Z,101030.88
2022-11-30T01:38:43.584Z,101029.64
2022-11-30T01:40:47.955Z,101030.02
2022-11-30T01:42:52.313Z,101033.38
2022-11-30T01:44:56.703Z,101038.59
2022-11-30T01:47:01.041Z,101034.37
2022-11-30T01:49:05.386Z,101040.19
2022-11-30T01:51:09.754Z,101042.14
2022-11-30T01:53:14.098Z,101039.89
2022-11-30T01:55:18.457Z,101039.41
2022-11-30T01:57:22.806Z,101047.59
2022-11-30T01:59:27.214Z,101044.86
2022-11-30T02:01:31.701Z,101044.91
2022-11-30T02:03:36.126Z,101039.82
2022-11-30T02:05:40.515Z,101040.63
2022-11-30T02:07:45.213Z,101042.48
2022-11-30T02:09:49.810Z,101044.55
2022-11-30T02:11:54.178Z,101048.92
2022-11-30T02:13:58.530Z,101046.26
2022-11-30T02:16:03.423Z,101044.66
2022-11-30T02:18:08.107Z,101043.36
2022-11-30T02:20:12.465Z,101048.23
2022-11-30T02:22:16.823Z,101044.08
2022-11-30T02:24:21.163Z,101042.27
2022-11-30T02:26:25.680Z,101040.93
2022-11-30T02:28:30.210Z,101043.38
2022-11-30T02:30:34.810Z,101042.45
2022-11-30T02:32:39.369Z,101045.09
2022-11-30T02:34:43.719Z,101046.91
2022-11-30T02:36:48.397Z,101044.69
2022-11-30T02:38:52.783Z,101044.55
2022-11-30T02:40:57.253Z,101046.92
2022-11-30T02:43:01.924Z,101043.38
2022-11-30T02:45:06.264Z,101046.31
2022-11-30T02:47:10.601Z,101050.05
2022-11-30T02:49:14.964Z,101048.3
2022-11-30T02:51:19.320Z,101051.91
2022-11-30T02:53:23.694Z,101054.78
2022-11-30T02:55:28.027Z,101056.31
2022-11-30T02:57:32.361Z,101051.5
2022-11-30T02:59:36.732Z,101053.48
2022-11-30T03:01:41.198Z,101058.38
2022-11-30T03:03:45.711Z,101056.06
2022-11-30T03:05:50.080Z,101055.35
2022-11-30T03:07:54.559Z,101057.39
2022-11-30T03:09:59.029Z,101062.09
2022-11-30T03:12:03.398Z,101063.45
2022-11-30T03:14:07.754Z,101068.63
2022-11-30T03:16:12.391Z,101070.17
2022-11-30T03:18:16.841Z,101074.33
2022-11-30T03:20:21.203Z,101076.84
2022-11-30T03:22:25.540Z,101077.34
2022-11-30T03:24:29.921Z,101083.34
2022-11-30T03:26:34.273Z,101083.8
2022-11-30T03:28:38.632Z,101086.97
2022-11-30T03:30:43.148Z,101092.55
2022-11-30T03:32:47.671Z,101093.36
2022-11-30T03:34:52.023Z,101098.38
2022-11-30T03:36:56.442Z,101100.22
2022-11-30T03:39:00.821Z,101105.27
2022-11-30T03:41:05.175Z,101103.97
2022-11-30T03:43:09.519Z,101101.07
2022-11-30T03:45:13.875Z,101108.47
2022-11-30T03:47:18.212Z,101105.16
2022-11-30T03:49:22.586Z,101106.42
2022-11-30T03:51:26.955Z,101106.25
2022-11-30T03:53:31.274Z,101108.17
2022-11-30T03:55:35.645Z,101111.13
2022-11-30T03:57:40.270Z,101109.46
2022-11-30T03:59:44.629Z,101117.88
2022-11-30T04:01:49.110Z,101123.38
2022-11-30T04:03:53.583Z,101129.03
2022-11-30T04:05:57.924Z,101135.84
2022-11-30T04:08:02.450Z,101137.84
2022-11-30T04:10:09.871Z,101132.8
2022-11-30T04:12:14.214Z,101135.65
2022-11-30T04:14:18.548Z,101135.48
2022-11-30T04:16:23.143Z,101136.36
2022-11-30T04:18:27.536Z,101132.72
2022-11-30T04:20:37.376Z,101136.84
2022-11-30T04:22:44.438Z,101137.48
2022-11-30T04:24:49.423Z,101140.88
2022-11-30T04:26:53.959Z,101133.9
2022-11-30T04:29:00.317Z,101136.91
2022-11-30T04:31:08.394Z,101135
2022-11-30T04:33:12.857Z,101130.33
2022-11-30T04:35:17.237Z,101133.47
2022-11-30T04:37:21.576Z,101131.32
2022-11-30T04:39:25.964Z,101131.52
2022-11-30T04:41:30.323Z,101133.91
2022-11-30T04:43:34.652Z,101136.66
2022-11-30T04:45:39.020Z,101138.51
2022-11-30T04:47:43.373Z,101133.77
2022-11-30T04:49:47.748Z,101135.58
2022-11-30T04:51:52.095Z,101137.66
2022-11-30T04:53:56.545Z,101137.69
2022-11-30T04:56:00.929Z,101133.25
2022-11-30T04:58:05.256Z,101137.62
2022-11-30T05:00:09.627Z,101140.64
2022-11-30T05:02:13.984Z,101139.75
2022-11-30T05:04:18.453Z,101142.3
2022-11-30T05:06:22.865Z,101140.95
2022-11-30T05:08:27.197Z,101144.99
2022-11-30T05:10:31.562Z,101142.23
2022-11-30T05:12:35.878Z,101139.67
2022-11-30T05:14:40.224Z,101148.02
2022-11-30T05:16:44.595Z,101147.88
2022-11-30T05:18:49.011Z,101147.37
2022-11-30T05:20:53.489Z,101145.73
2022-11-30T05:22:57.852Z,101147.53
2022-11-30T05:25:02.192Z,101152.06
2022-11-30T05:27:19.444Z,101153.15
2022-11-30T05:29:26.572Z,101159.47
2022-11-30T05:31:31.150Z,101158.66
2022-11-30T05:33:35.700Z,101162.68
2022-11-30T05:35:40.060Z,101160.95
2022-11-30T05:37:44.388Z,101162.04
2022-11-30T05:39:48.940Z,101163.62
2022-11-30T05:41:53.303Z,101163.72
2022-11-30T05:43:57.650Z,101164.95
2022-11-30T05:46:02.035Z,101167.84
2022-11-30T05:48:06.420Z,101166.92
2022-11-30T05:50:10.757Z,101167.27
2022-11-30T05:52:15.128Z,101166.34
2022-11-30T05:54:19.483Z,101172.81
2022-11-30T05:56:23.851Z,101167.88
2022-11-30T05:58:28.202Z,101170.15
2022-11-30T06:00:32.531Z,101167.52
2022-11-30T06:02:37.247Z,101175.05
2022-11-30T06:04:41.815Z,101174.59
2022-11-30T06:06:46.158Z,101178.52
2022-11-30T06:08:50.574Z,101176.53
2022-11-30T06:10:54.943Z,101176.91
2022-11-30T06:12:59.302Z,101180.04
2022-11-30T06:15:03.664Z,101182.07
2022-11-30T06:17:08.039Z,101181.83
2022-11-30T06:19:12.401Z,101175.05
2022-11-30T06:21:24.773Z,101180.87
2022-11-30T06:23:29.381Z,101182.09
2022-11-30T06:25:34.309Z,101182.15
2022-11-30T06:27:38.676Z,101180.99
2022-11-30T06:29:43.039Z,101188.16
2022-11-30T06:31:47.560Z,101192.97
2022-11-30T06:33:52.063Z,101195.27
2022-11-30T06:35:56.448Z,101200.68
2022-11-30T06:38:00.838Z,101203.06
2022-11-30T06:40:08.726Z,101203.83
2022-11-30T06:42:13.276Z,101206.3
2022-11-30T06:44:17.633Z,101208.42
2022-11-30T06:46:21.984Z,101206.33
2022-11-30T06:48:26.469Z,101208.73
2022-11-30T06:50:30.862Z,101209.88
2022-11-30T06:52:35.262Z,101218.14
2022-11-30T06:54:39.715Z,101216
2022-11-30T06:56:44.062Z,101217.28
2022-11-30T06:58:48.400Z,101220.27
2022-11-30T07:00:52.936Z,101219.52
2022-11-30T07:02:57.413Z,101216.73
2022-11-30T07:05:01.800Z,101220.73
2022-11-30T07:07:06.186Z,101220.8
2022-11-30T07:09:10.522Z,101222.64
2022-11-30T07:11:14.878Z,101224.11
2022-11-30T07:13:19.254Z,101221.58
2022-11-30T07:15:23.599Z,101220.94
2022-11-30T07:17:27.965Z,101213.8
2022-11-30T07:19:32.332Z,101217.08
2022-11-30T07:21:36.669Z,101218.86
2022-11-30T07:23:41.031Z,101222.69
2022-11-30T07:25:45.381Z,101223.73
2022-11-30T07:27:49.751Z,101223.34
2022-11-30T07:29:54.115Z,101220.83
2022-11-30T07:31:58.624Z,101229.82
2022-11-30T07:34:03.172Z,101232.95
2022-11-30T07:36:07.537Z,101229.49
2022-11-30T07:38:11.947Z,101233.44
2022-11-30T07:40:16.305Z,101239.55
2022-11-30T07:42:20.648Z,101240.98
2022-11-30T07:44:25.042Z,101239.3
2022-11-30T07:46:29.419Z,101246.35
2022-11-30T07:48:33.779Z,101247.13
2022-11-30T07:50:38.134Z,101246.63
2022-11-30T07:52:42.511Z,101242.83
2022-11-30T07:54:47.783Z,101243.13
2022-11-30T07:56:52.609Z,101244.64
2022-11-30T07:58:56.969Z,101243.22
2022-11-30T08:01:01.765Z,101245.48
2022-11-30T08:03:06.455Z,101244.07
2022-11-30T08:05:10.847Z,101249.33
2022-11-30T08:07:15.285Z,101251.45
2022-11-30T08:09:21.974Z,101245.17
2022-11-30T08:11:26.370Z,101244.59
2022-11-30T08:13:30.806Z,101249.99
2022-11-30T08:15:35.832Z,101249.05
2022-11-30T08:17:40.950Z,101248.06
2022-11-30T08:19:45.370Z,101246.17
2022-11-30T08:21:49.710Z,101251.28
2022-11-30T08:23:54.169Z,101251.03
2022-11-30T08:25:58.618Z,101254.92
2022-11-30T08:28:02.982Z,101252.03
2022-11-30T08:30:07.414Z,101250.97
2022-11-30T08:32:11.777Z,101248.16
2022-11-30T08:34:16.154Z,101247.2
2022-11-30T08:36:20.503Z,101245.61
2022-11-30T08:38:24.892Z,101245.38
2022-11-30T08:40:29.362Z,101246.5
2022-11-30T08:42:33.742Z,101246.32
2022-11-30T08:44:38.074Z,101247.24
2022-11-30T08:46:57.897Z,101246.08
2022-11-30T08:49:32.404Z,101247.3
2022-11-30T08:52:18.375Z,101251.77
2022-11-30T08:54:23.098Z,101253.56
2022-11-30T08:56:27.518Z,101268.36
2022-11-30T08:58:31.883Z,101270.79
2022-11-30T09:00:36.317Z,101268.3
2022-11-30T09:02:40.800Z,101264.73
2022-11-30T09:04:45.383Z,101270.27
2022-11-30T09:06:49.767Z,101273.62
2022-11-30T09:08:54.194Z,101263.41
2022-11-30T09:10:58.563Z,101258.39
2022-11-30T09:13:02.932Z,101258.55
2022-11-30T09:15:07.244Z,101260.17
2022-11-30T09:17:11.642Z,101259.32
2022-11-30T09:19:16.197Z,101257.63
2022-11-30T09:30:28.632Z,101266.02
2022-11-30T09:32:33.349Z,101265.39
2022-11-30T09:34:37.733Z,101270.38
2022-11-30T09:36:42.099Z,101266.2
2022-11-30T09:38:46.497Z,101265.53
2022-11-30T09:40:50.908Z,101267.25
2022-11-30T09:42:55.339Z,101267.7
2022-11-30T09:47:21.430Z,101265.33
2022-11-30T09:49:29.523Z,101268.63
2022-11-30T09:51:33.886Z,101268.78
2022-11-30T09:53:38.488Z,101274.56
2022-11-30T09:55:42.982Z,101273.11
2022-11-30T09:57:47.378Z,101272.66
2022-11-30T09:59:51.813Z,101275.98
2022-11-30T10:01:58.309Z,101280.94
2022-11-30T10:04:02.791Z,101280.53
2022-11-30T10:06:07.165Z,101283.02
2022-11-30T10:08:11.585Z,101278.94
2022-11-30T10:10:33.652Z,101285.09
2022-11-30T10:12:38.365Z,101277.94
2022-11-30T10:14:42.757Z,101273.38
2022-11-30T10:16:47.119Z,101274.78
2022-11-30T10:18:51.481Z,101270.94
2022-11-30T10:20:55.923Z,101271.01
2022-11-30T10:23:00.356Z,101272.54
2022-11-30T10:25:12.140Z,101266.38
2022-11-30T10:27:16.682Z,101269.43
2022-11-30T10:29:21.045Z,101268.26
2022-11-30T10:31:25.756Z,101267.48
2022-11-30T10:33:38.287Z,101271.99
2022-11-30T10:35:42.880Z,101268.86
2022-11-30T10:37:47.283Z,101266.91
2022-11-30T10:39:51.671Z,101266.88
2022-11-30T10:41:56.071Z,101262.66
2022-11-30T10:44:00.499Z,101258.85
2022-11-30T10:46:05.016Z,101261.07
2022-11-30T10:48:09.528Z,101262.11
2022-11-30T10:50:14.000Z,101263.98
2022-11-30T10:52:18.461Z,101269.58
2022-11-30T10:54:22.833Z,101272.8
2022-11-30T10:56:27.212Z,101269.72
2022-11-30T10:58:31.620Z,101273.22
2022-11-30T11:00:36.013Z,101275.33
2022-11-30T11:02:40.623Z,101272.47
2022-11-30T11:04:45.124Z,101276.35
2022-11-30T11:06:49.714Z,101274.23
2022-11-30T11:08:54.215Z,101281.06
2022-11-30T11:10:58.621Z,101273.94
2022-11-30T11:13:02.995Z,101273.36
2022-11-30T11:15:07.386Z,101278.16
2022-11-30T11:17:11.718Z,101281.66
2022-11-30T11:19:16.078Z,101274.8
2022-11-30T11:21:20.462Z,101275.09
2022-11-30T11:23:24.840Z,101278.83
2022-11-30T11:25:29.294Z,101271.58
2022-11-30T11:27:33.668Z,101273.38
2022-11-30T11:29:40.948Z,101270.56
2022-11-30T11:31:45.438Z,101272.09
2022-11-30T11:33:49.796Z,101273.3
2022-11-30T11:35:54.195Z,101270.44
2022-11-30T11:37:58.560Z,101272.58
2022-11-30T11:40:03.073Z,101275.03
2022-11-30T11:42:07.573Z,101269.74
2022-11-30T11:44:11.958Z,101274.78
2022-11-30T11:46:16.817Z,101273.02
2022-11-30T11:48:29.105Z,101270.75
2022-11-30T11:51:07.977Z,101267.93
2022-11-30T11:53:12.924Z,101268.37
2022-11-30T11:55:17.407Z,101268.83
2022-11-30T11:57:21.783Z,101270.64
2022-11-30T11:59:33.193Z,101269.19
2022-11-30T12:01:42.254Z,101267.65
2022-11-30T12:03:46.593Z,101267.26
2022-11-30T12:05:51.339Z,101266.39
2022-11-30T12:07:55.803Z,101266.88
2022-11-30T12:10:00.224Z,101266.25
2022-11-30T12:12:04.574Z,101273.5
2022-11-30T12:14:08.960Z,101268.42
2022-11-30T12:16:13.625Z,101275.31
2022-11-30T12:18:24.712Z,101275.76
2022-11-30T12:20:29.081Z,101278.58
2022-11-30T12:22:33.440Z,101285.16
2022-11-30T12:24:37.841Z,101283.84
2022-11-30T12:26:42.499Z,101279.46
2022-11-30T12:28:46.884Z,101278.68
2022-11-30T12:30:51.297Z,101282.14
2022-11-30T12:32:55.802Z,101282.72
2022-11-30T12:35:00.202Z,101282.52
2022-11-30T12:37:04.610Z,101279.27
2022-11-30T12:39:08.962Z,101280.88
2022-11-30T12:41:13.314Z,101280.39
2022-11-30T12:43:17.673Z,101282.98
2022-11-30T12:45:22.074Z,101282.92
2022-11-30T12:47:26.427Z,101286.08
2022-11-30T12:49:30.853Z,101282.88
2022-11-30T12:51:35.273Z,101282.58
2022-11-30T12:53:39.644Z,101281.86
2022-11-30T12:55:44.005Z,101292.25
2022-11-30T12:57:48.388Z,101284.42
2022-11-30T12:59:52.739Z,101284.17
2022-11-30T13:01:57.291Z,101281.27
2022-11-30T13:04:01.826Z,101282.64
2022-11-30T13:06:06.392Z,101278.55
2022-11-30T13:08:10.799Z,101283.66
2022-11-30T13:10:15.151Z,101283.22
2022-11-30T13:12:19.531Z,101285.29
2022-11-30T13:14:23.884Z,101287.55
2022-11-30T13:16:28.403Z,101284.27
2022-11-30T13:18:32.989Z,101282.67
2022-11-30T13:20:37.316Z,101286.63
2022-11-30T13:22:41.717Z,101281.38
2022-11-30T13:24:46.815Z,101279.26
2022-11-30T13:26:51.780Z,101278.49
2022-11-30T13:28:56.163Z,101279.17
2022-11-30T13:31:00.649Z,101279.43
2022-11-30T13:56:37.535Z,101282.28
2022-11-30T13:58:41.947Z,101283.16
2022-11-30T14:00:46.404Z,101287.49
2022-11-30T14:02:50.837Z,101287.27
2022-11-30T14:04:55.228Z,101289.57
2022-11-30T14:06:59.610Z,101288.98
2022-11-30T14:09:04.011Z,101291.81
2022-11-30T14:11:08.427Z,101291.2
2022-11-30T14:13:12.774Z,101295.88
2022-11-30T14:15:17.101Z,101300.95
2022-11-30T14:17:21.467Z,101302.31
2022-11-30T14:19:25.831Z,101298.17
2022-11-30T14:21:30.212Z,101300.48
2022-11-30T14:26:20.030Z,101306.03
2022-11-30T14:28:24.479Z,101302.35
2022-11-30T14:30:28.993Z,101301.27
2022-11-30T14:32:33.340Z,101295.6
2022-11-30T14:34:37.752Z,101295.39
2022-11-30T14:36:42.108Z,101292.77
2022-11-30T14:38:46.502Z,101297.48
2022-11-30T14:40:50.880Z,101298.33
2022-11-30T18:21:47.971Z,101394.36
2022-11-30T18:23:52.415Z,101391.22
2022-11-30T18:25:56.857Z,101393.45
2022-11-30T18:28:01.372Z,101394.25
2022-11-30T18:30:11.106Z,101394.38
2022-11-30T18:32:15.515Z,101397.55
2022-11-30T18:34:20.031Z,101399.41
2022-11-30T18:36:24.455Z,101397.13
2022-11-30T18:38:37.135Z,101394.5
2022-11-30T18:40:42.519Z,101394.98
2022-11-30T18:42:47.063Z,101398.32
2022-11-30T18:44:51.952Z,101400
2022-11-30T18:46:56.329Z,101396.84
2022-11-30T18:49:00.689Z,101400.39
2022-11-30T18:51:05.080Z,101390.23
2022-11-30T18:53:18.322Z,101388.91
2022-11-30T18:55:23.067Z,101394.55
2022-11-30T18:57:27.465Z,101402.81
2022-11-30T18:59:31.954Z,101399.11
2022-11-30T19:01:36.577Z,101399.69
2022-11-30T19:03:41.700Z,101406.48
2022-11-30T19:05:46.174Z,101404.29
2022-11-30T19:07:50.790Z,101403.73
2022-11-30T19:09:55.387Z,101403.84
2022-11-30T19:11:59.788Z,101403.17
2022-11-30T19:14:04.136Z,101401.52
2022-11-30T19:16:08.553Z,101397.59
2022-11-30T19:18:13.342Z,101405.69
2022-11-30T19:20:21.993Z,101405.82
2022-11-30T19:22:27.167Z,101408.06
2022-11-30T19:24:32.173Z,101404.47
2022-11-30T19:26:36.590Z,101409.46
2022-11-30T19:28:41.168Z,101409.36
2022-11-30T19:30:45.774Z,101404.2
2022-11-30T19:32:52.496Z,101404.75
2022-11-30T19:34:57.554Z,101407.28
2022-11-30T19:37:05.113Z,101407.91
2022-11-30T19:39:10.008Z,101411.03
2022-11-30T19:41:18.675Z,101406.33
2022-11-30T19:43:23.443Z,101406.05
2022-11-30T19:45:29.078Z,101407.28
2022-11-30T19:47:33.613Z,101406.36
2022-11-30T19:49:38.578Z,101410.69
2022-11-30T19:51:43.125Z,101413.23
2022-11-30T19:53:48.193Z,101412.67
2022-11-30T19:55:52.767Z,101410.22
2022-11-30T19:57:57.205Z,101409.77
2022-11-30T20:00:02.183Z,101414.27
2022-11-30T20:02:07.027Z,101416.41
2022-11-30T20:04:11.885Z,101414.67
2022-11-30T20:06:16.722Z,101413.82
2022-11-30T20:08:22.309Z,101412.57
2022-11-30T20:10:33.610Z,101409.34
2022-11-30T20:12:39.255Z,101412.43
2022-11-30T20:14:49.410Z,101412.52
2022-11-30T20:16:54.674Z,101410.53
2022-11-30T20:18:59.340Z,101406.95
2022-11-30T20:21:03.942Z,101415.52
2022-11-30T20:23:08.406Z,101412.91
2022-11-30T20:25:13.794Z,101411.97
2022-11-30T20:27:18.392Z,101409.19
2022-11-30T20:29:23.279Z,101413.27
2022-11-30T20:31:27.774Z,101412.5
2022-11-30T20:33:32.496Z,101418.81
2022-11-30T20:35:36.953Z,101428.55
2022-11-30T20:37:42.150Z,101414.28
2022-11-30T20:39:47.545Z,101413.47
2022-11-30T20:41:52.505Z,101411.06
2022-11-30T20:43:56.902Z,101412.99
2022-11-30T20:46:01.575Z,101414.69
2022-11-30T20:48:07.157Z,101415.63
2022-11-30T20:50:12.488Z,101419.24
2022-11-30T20:52:17.937Z,101420.23
2022-11-30T20:54:22.468Z,101416.42
2022-11-30T20:56:27.435Z,101419.51
2022-11-30T20:58:31.879Z,101421.33
2022-11-30T21:00:36.347Z,101424.28
2022-11-30T21:02:40.944Z,101426.69
2022-11-30T21:04:45.679Z,101433.2
2022-11-30T21:06:50.710Z,101432.87
2022-11-30T21:08:55.522Z,101433.72
2022-11-30T21:11:00.348Z,101433
2022-11-30T21:13:04.770Z,101433.56
2022-11-30T21:15:09.275Z,101431.89
2022-11-30T21:17:13.688Z,101432.41
2022-11-30T21:19:18.580Z,101434.84
2022-11-30T21:21:22.991Z,101438.42
2022-11-30T21:23:27.406Z,101438.03
2022-11-30T21:25:31.831Z,101431.58
2022-11-30T21:27:36.250Z,101432.44
2022-11-30T21:29:40.602Z,101432.83
2022-11-30T21:31:45.036Z,101427.41
2022-11-30T21:33:54.300Z,101430.53
2022-11-30T21:35:58.706Z,101442.98
2022-11-30T21:38:03.183Z,101442.86
2022-11-30T21:40:07.580Z,101443.64
2022-11-30T21:42:12.017Z,101446.66
2022-11-30T21:44:16.414Z,101446.73
2022-11-30T21:46:21.038Z,101444.73
2022-11-30T21:48:25.617Z,101446.84
2022-11-30T21:50:30.019Z,101447.35
2022-11-30T21:52:34.417Z,101453.15
2022-11-30T21:54:38.782Z,101452.41
2022-11-30T21:56:43.127Z,101450.5
2022-11-30T21:58:47.512Z,101450.48
2022-11-30T22:00:51.856Z,101448.09
2022-11-30T22:02:56.392Z,101448.7
2022-11-30T22:05:00.976Z,101451.58
2022-11-30T22:07:05.380Z,101450.53
2022-11-30T22:09:09.769Z,101446.91
2022-11-30T22:11:14.192Z,101446.91
2022-11-30T22:13:18.562Z,101449.59
2022-11-30T22:15:22.948Z,101454.95
2022-11-30T22:17:27.328Z,101450.09
2022-11-30T22:19:31.708Z,101447.77
2022-11-30T22:21:36.113Z,101448.95
2022-11-30T22:23:40.546Z,101445.77
2022-11-30T22:25:45.005Z,101447.66
2022-11-30T22:27:49.457Z,101445.83
2022-11-30T22:29:53.842Z,101452.58
2022-11-30T22:31:58.225Z,101453.16
2022-11-30T22:34:02.630Z,101455.63
2022-11-30T22:36:06.989Z,101450.53
2022-11-30T22:38:11.352Z,101450.45
2022-11-30T22:40:15.711Z,101453.67
2022-11-30T22:42:20.087Z,101448.83
2022-11-30T22:44:24.505Z,101447.18
2022-11-30T22:46:29.060Z,101448.39
2022-11-30T22:48:33.609Z,101450.14
2022-11-30T22:50:37.968Z,101443.77
2022-11-30T22:53:03.767Z,101447.11
2022-11-30T22:55:08.583Z,101445.53
2022-11-30T22:57:13.254Z,101436.27
2022-11-30T22:59:17.621Z,101437.66
2022-11-30T23:01:22.019Z,101434.05
2022-11-30T23:03:26.718Z,101432.67
2022-11-30T23:05:31.378Z,101430.05
2022-11-30T23:07:35.858Z,101433.38
2022-11-30T23:09:40.361Z,101430.95
2022-11-30T23:11:44.747Z,101432.09
2022-11-30T23:13:49.099Z,101430.08
2022-11-30T23:15:53.577Z,101426.8
2022-11-30T23:17:58.107Z,101423.25
2022-11-30T23:20:02.472Z,101423.03
2022-11-30T23:22:06.872Z,101425.23
2022-11-30T23:24:11.223Z,101423.64
2022-11-30T23:26:15.602Z,101426.87
2022-11-30T23:28:19.972Z,101427.37
2022-11-30T23:30:24.351Z,101425.02
2022-11-30T23:32:28.722Z,101422.05
2022-11-30T23:34:33.081Z,101427.22
2022-11-30T23:36:37.487Z,101424.98
2022-11-30T23:38:41.832Z,101429.44
2022-11-30T23:40:46.190Z,101425.59
2022-11-30T23:42:50.539Z,101423.98
2022-11-30T23:44:54.921Z,101427.03
2022-11-30T23:46:59.459Z,101422.28
2022-11-30T23:49:04.016Z,101422.59
2022-11-30T23:51:08.363Z,101418.93
2022-11-30T23:53:12.726Z,101418.08
2022-11-30T23:55:17.084Z,101420.13
2022-11-30T23:57:21.416Z,101418.05
2022-11-30T23:59:25.807Z,101418.14
